Time;durP1;ratioP1;P1;durP2;ratioP2;P2;SDS_P1;SDS_P2;PMS_P1;PMS_P2;Temp;Humidity;BMP_temperature;BMP_pressure;BME280_temperature;BME280_humidity;BME280_pressure;Samples;Min_cycle;Max_cycle;Signal;HPM_P1;HPM_P2
2021/06/04 00:01:32;;;;;;;12.23;6.70;;;17.70;1.00;;;;;;5055315;28;20186;-75
2021/06/04 00:04:09;;;;;;;9.83;6.20;;;;;;;;;;5055524;28;20417;-75
2021/06/04 00:07:08;;;;;;;8.70;6.50;;;17.60;1.00;;;;;;5041714;28;20469;-75
2021/06/04 00:09:44;;;;;;;13.57;5.93;;;17.60;1.00;;;;;;5035915;28;20366;-75
2021/06/04 00:12:10;;;;;;;11.10;6.83;;;;;;;;;;5043663;28;20472;-74
2021/06/04 00:14:40;;;;;;;11.00;6.23;;;17.50;1.00;;;;;;5052626;28;21013;-73
2021/06/04 00:17:11;;;;;;;11.47;6.20;;;17.50;1.00;;;;;;5051129;28;20413;-74
2021/06/04 00:19:39;;;;;;;16.23;6.80;;;;;;;;;;5035516;28;20424;-73
2021/06/04 00:22:17;;;;;;;13.97;5.90;;;17.40;1.00;;;;;;5035541;28;20948;-74
2021/06/04 00:24:55;;;;;;;16.90;6.87;;;17.30;1.00;;;;;;5046680;28;20765;-73
2021/06/04 00:27:23;;;;;;;12.43;6.90;;;17.30;1.00;;;;;;5055353;28;20398;-73
2021/06/04 00:29:49;;;;;;;10.00;6.10;;;;;;;;;;5055190;28;20386;-73
2021/06/04 00:32:26;;;;;;;13.33;6.50;;;17.20;1.00;;;;;;5038631;28;20742;-74
2021/06/04 00:35:04;;;;;;;7.90;6.17;;;17.10;1.00;;;;;;5035235;28;20402;-73
2021/06/04 00:37:30;;;;;;;10.87;6.70;;;17.10;1.00;;;;;;5041506;28;20430;-73
2021/06/04 00:39:56;;;;;;;13.80;6.70;;;;;;;;;;5036504;28;20413;-73
2021/06/04 00:42:26;;;;;;;10.97;6.97;;;17.00;1.00;;;;;;5035465;28;20208;-74
2021/06/04 00:44:56;;;;;;;31.00;6.50;;;16.90;1.00;;;;;;5035023;28;20385;-73
2021/06/04 00:47:23;;;;;;;13.23;7.00;;;16.90;1.00;;;;;;5034790;28;20493;-73
2021/06/04 00:49:49;;;;;;;10.53;6.53;;;16.80;1.00;;;;;;5035500;28;20427;-73
2021/06/04 00:52:21;;;;;;;8.80;6.37;;;16.80;1.00;;;;;;5034919;28;20433;-73
2021/06/04 00:54:48;;;;;;;9.83;6.90;;;16.80;1.00;;;;;;5034969;28;20401;-73
2021/06/04 00:57:14;;;;;;;23.03;7.17;;;16.80;1.00;;;;;;5047864;28;20805;-73
2021/06/04 00:59:44;;;;;;;13.97;7.80;;;16.80;1.00;;;;;;5037971;28;20425;-73
2021/06/04 01:02:18;;;;;;;12.53;7.37;;;16.70;1.00;;;;;;5034928;28;20370;-73
2021/06/04 01:04:45;;;;;;;12.10;7.33;;;16.70;1.00;;;;;;5034698;28;20392;-73
2021/06/04 01:07:17;;;;;;;15.63;6.67;;;16.70;1.00;;;;;;5034543;28;20390;-73
2021/06/04 01:10:04;;;;;;;9.83;6.50;;;16.70;1.00;;;;;;5034572;28;20431;-73
2021/06/04 01:12:35;;;;;;;9.37;6.33;;;16.60;1.00;;;;;;5034900;28;20881;-73
2021/06/04 01:15:26;;;;;;;13.27;6.80;;;16.60;1.00;;;;;;5034557;28;20469;-73
2021/06/04 01:18:04;;;;;;;11.80;6.97;;;16.60;1.00;;;;;;5036930;28;20462;-73
2021/06/04 01:20:33;;;;;;;11.97;7.00;;;16.60;1.00;;;;;;5037452;28;20858;-74
2021/06/04 01:23:24;;;;;;;11.60;6.10;;;16.60;1.00;;;;;;5054397;28;20452;-73
2021/06/04 01:26:07;;;;;;;11.10;6.60;;;16.50;1.00;;;;;;5054208;28;20406;-73
2021/06/04 01:28:43;;;;;;;24.33;7.37;;;16.50;1.00;;;;;;5054241;28;20400;-74
2021/06/04 01:31:45;;;;;;;9.50;6.20;;;16.50;1.00;;;;;;5049771;28;20427;-75
2021/06/04 01:34:11;;;;;;;7.63;5.63;;;;;;;;;;5044095;28;20408;-75
2021/06/04 01:36:52;;;;;;;10.53;6.37;;;16.50;1.00;;;;;;5034358;28;20470;-75
2021/06/04 01:39:25;;;;;;;12.03;6.63;;;16.50;1.00;;;;;;5037445;28;20446;-75
2021/06/04 01:41:53;;;;;;;14.50;6.27;;;16.50;1.00;;;;;;5054045;28;20392;-74
2021/06/04 01:44:27;;;;;;;14.10;5.70;;;16.50;1.00;;;;;;5034341;28;20738;-74
2021/06/04 01:46:59;;;;;;;11.23;6.03;;;16.50;1.00;;;;;;5037092;28;20902;-74
2021/06/04 01:49:31;;;;;;;9.10;6.23;;;16.50;1.00;;;;;;5051530;28;20429;-74
2021/06/04 01:52:32;;;;;;;12.43;6.10;;;16.50;1.00;;;;;;5034076;28;20434;-74
2021/06/04 01:55:13;;;;;;;10.37;6.10;;;16.50;1.00;;;;;;4992442;28;20431;-74
2021/06/04 01:57:49;;;;;;;12.00;6.87;;;16.50;1.00;;;;;;4992855;28;20379;-73
2021/06/04 02:00:23;;;;;;;14.03;6.90;;;16.50;1.00;;;;;;5000571;28;20878;-73
2021/06/04 02:02:50;;;;;;;9.63;5.90;;;;;;;;;;5010661;28;20467;-73
2021/06/04 02:05:20;;;;;;;7.93;6.17;;;16.50;1.00;;;;;;5011899;28;20498;-73
2021/06/04 02:07:50;;;;;;;23.07;6.37;;;16.50;1.00;;;;;;4992536;28;20886;-73
2021/06/04 02:10:39;;;;;;;11.77;5.53;;;16.50;1.00;;;;;;4992443;28;20931;-73
2021/06/04 02:13:06;;;;;;;10.33;5.60;;;16.60;1.00;;;;;;4992704;28;20637;-74
2021/06/04 02:15:37;;;;;;;13.63;6.67;;;16.60;1.00;;;;;;4992294;28;20441;-74
2021/06/04 02:18:14;;;;;;;10.73;6.43;;;16.60;1.00;;;;;;4996585;28;20463;-75
2021/06/04 02:20:47;;;;;;;7.67;5.70;;;16.60;1.00;;;;;;4992398;28;20380;-75
2021/06/04 02:23:34;;;;;;;26.20;6.87;;;16.60;1.00;;;;;;4992225;28;20376;-75
2021/06/04 02:26:38;;;;;;;12.10;7.03;;;16.60;1.00;;;;;;5011537;28;20479;-75
2021/06/04 02:29:14;;;;;;;10.50;6.10;;;16.70;1.00;;;;;;5011007;28;20994;-74
2021/06/04 02:32:06;;;;;;;12.90;6.53;;;16.70;1.00;;;;;;5021506;28;20485;-74
2021/06/04 02:35:03;;;;;;;25.90;6.67;;;16.70;1.00;;;;;;5033511;28;20400;-75
2021/06/04 02:37:39;;;;;;;11.03;5.93;;;16.70;1.00;;;;;;5052853;28;20441;-75
2021/06/04 02:40:12;;;;;;;14.93;6.00;;;16.70;1.00;;;;;;5053373;28;20728;-75
2021/06/04 02:42:51;;;;;;;12.50;6.80;;;16.70;1.00;;;;;;5053790;28;20395;-73
2021/06/04 02:45:34;;;;;;;9.20;6.37;;;16.70;1.00;;;;;;5038142;28;20414;-73
2021/06/04 02:48:11;;;;;;;9.97;6.10;;;16.70;1.00;;;;;;5033611;28;20397;-74
2021/06/04 02:50:51;;;;;;;10.53;6.03;;;16.70;1.00;;;;;;5034281;28;20370;-73
2021/06/04 02:53:32;;;;;;;20.50;7.23;;;16.80;1.00;;;;;;5037714;28;20765;-73
2021/06/04 02:56:26;;;;;;;10.43;6.40;;;16.80;1.00;;;;;;5037302;28;20417;-73
2021/06/04 02:59:32;;;;;;;12.20;6.97;;;16.80;1.00;;;;;;5042577;28;20389;-74
2021/06/04 03:02:10;;;;;;;18.83;6.53;;;16.80;1.00;;;;;;5055677;28;20846;-74
2021/06/04 03:04:42;;;;;;;7.33;5.53;;;16.80;1.00;;;;;;5037243;28;20448;-74
2021/06/04 03:07:15;;;;;;;6.97;5.80;;;16.80;1.00;;;;;;5055568;28;20468;-74
2021/06/04 03:09:51;;;;;;;10.43;5.70;;;16.80;1.00;;;;;;5052657;28;20414;-74
2021/06/04 03:12:28;;;;;;;11.67;6.17;;;16.80;1.00;;;;;;5057353;28;20833;-74
2021/06/04 03:14:57;;;;;;;7.10;5.53;;;16.80;1.00;;;;;;5056758;28;20453;-73
2021/06/04 03:17:28;;;;;;;13.73;5.70;;;16.80;1.00;;;;;;5055030;28;20451;-73
2021/06/04 03:19:55;;;;;;;7.40;5.27;;;16.80;1.00;;;;;;5056735;28;20368;-74
2021/06/04 03:23:02;;;;;;;12.00;5.20;;;16.80;1.00;;;;;;5046187;28;20407;-77
2021/06/04 03:28:51;;;;;;;8.00;6.40;;;16.80;1.00;;;;;;5036292;28;20404;-78
2021/06/04 03:31:34;;;;;;;11.17;6.00;;;16.80;1.00;;;;;;5044304;28;20484;-78
2021/06/04 03:34:32;;;;;;;9.30;5.07;;;16.90;1.00;;;;;;5056292;28;20398;-78
2021/06/04 03:37:32;;;;;;;8.40;5.97;;;16.90;1.00;;;;;;5056335;28;20434;-78
2021/06/04 03:40:18;;;;;;;9.47;5.70;;;16.90;1.00;;;;;;5045297;28;20476;-74
2021/06/04 03:42:50;;;;;;;11.30;5.90;;;16.90;1.00;;;;;;5051807;28;20897;-75
2021/06/04 03:45:26;;;;;;;10.40;6.30;;;16.90;1.00;;;;;;5036259;28;20370;-75
2021/06/04 03:47:56;;;;;;;9.90;5.47;;;16.90;1.00;;;;;;5039854;28;20428;-75
2021/06/04 03:50:26;;;;;;;9.77;5.70;;;16.90;1.00;;;;;;5055956;28;20476;-76
2021/06/04 03:52:52;;;;;;;13.07;6.73;;;17.00;1.00;;;;;;5055919;28;20389;-75
2021/06/04 03:55:22;;;;;;;14.00;7.40;;;17.00;1.00;;;;;;5035865;28;20932;-75
2021/06/04 03:57:49;;;;;;;16.10;6.70;;;17.00;1.00;;;;;;5036141;28;20504;-74
2021/06/04 04:00:42;;;;;;;11.07;6.87;;;17.10;1.00;;;;;;5035868;28;20419;-74
2021/06/04 04:03:09;;;;;;;19.47;7.00;;;;;;;;;;5035349;28;20457;-74
2021/06/04 04:05:35;;;;;;;9.60;6.57;;;17.20;1.00;;;;;;5036046;28;20781;-74
2021/06/04 04:08:02;;;;;;;9.63;6.07;;;17.30;1.00;;;;;;5035710;28;20379;-74
2021/06/04 04:10:33;;;;;;;7.97;5.80;;;17.40;1.00;;;;;;5035613;28;20748;-73
2021/06/04 04:13:00;;;;;;;12.73;6.50;;;17.40;1.00;;;;;;5036063;28;20400;-73
2021/06/04 04:15:28;;;;;;;21.63;7.53;;;17.50;1.00;;;;;;5054047;28;20541;-73
2021/06/04 04:18:03;;;;;;;9.40;6.30;;;17.60;1.00;;;;;;5055707;28;20407;-74
2021/06/04 04:20:36;;;;;;;11.90;6.97;;;17.70;1.00;;;;;;5043825;28;20395;-73
2021/06/04 04:23:05;;;;;;;10.13;6.43;;;17.80;1.00;;;;;;5038158;28;21017;-73
2021/06/04 04:25:36;;;;;;;9.20;5.77;;;17.90;1.00;;;;;;5035432;28;20400;-73
2021/06/04 04:28:05;;;;;;;11.10;6.37;;;18.00;1.00;;;;;;5035955;28;20412;-75
2021/06/04 04:30:33;;;;;;;10.70;7.70;;;18.20;1.00;;;;;;5035523;28;20455;-75
2021/06/04 04:33:32;;;;;;;14.53;6.40;;;18.30;1.00;;;;;;5035303;28;20420;-75
2021/06/04 04:36:50;;;;;;;12.00;8.30;;;18.40;1.00;;;;;;5048198;28;20624;-75
2021/06/04 04:39:36;;;;;;;14.37;7.60;;;18.70;1.00;;;;;;5035428;28;20970;-75
2021/06/04 04:42:05;;;;;;;17.03;10.70;;;18.80;1.00;;;;;;5054115;28;20483;-75
2021/06/04 04:44:36;;;;;;;21.50;11.87;;;19.00;1.00;;;;;;5055292;28;20422;-73
2021/06/04 04:47:04;;;;;;;20.00;12.27;;;19.10;1.00;;;;;;5050368;28;21115;-73
2021/06/04 04:49:30;;;;;;;18.97;11.73;;;19.20;1.00;;;;;;5045788;28;20396;-74
2021/06/04 04:51:56;;;;;;;18.73;11.60;;;19.30;1.00;;;;;;5035257;28;20413;-73
2021/06/04 04:54:44;;;;;;;17.80;11.43;;;19.50;1.00;;;;;;5035532;28;20509;-75
2021/06/04 04:57:50;;;;;;;22.23;10.73;;;19.60;1.00;;;;;;5035077;28;20191;-81
2021/06/04 05:00:33;;;;;;;18.00;11.53;;;19.70;1.00;;;;;;5035022;28;20392;-80
2021/06/04 05:02:59;;;;;;;18.90;10.20;;;19.70;1.00;;;;;;5051076;28;20413;-80
2021/06/04 05:06:02;;;;;;;16.53;11.20;;;19.80;1.00;;;;;;5054710;28;20787;-80
2021/06/04 05:09:05;;;;;;;20.40;11.93;;;19.90;1.00;;;;;;5054446;28;20383;-80
2021/06/04 05:12:03;;;;;;;17.20;10.33;;;20.10;1.00;;;;;;5043538;28;20422;-80
2021/06/04 05:14:29;;;;;;;16.00;9.20;;;20.30;1.00;;;;;;5045065;28;20535;-80
2021/06/04 05:17:03;;;;;;;17.13;9.80;;;20.40;1.00;;;;;;5039196;28;20452;-80
2021/06/04 05:20:03;;;;;;;17.50;9.70;;;20.50;1.00;;;;;;5042003;28;20772;-80
2021/06/04 05:22:32;;;;;;;14.87;9.80;;;20.70;1.00;;;;;;5048057;28;20498;-80
2021/06/04 05:25:33;;;;;;;13.97;10.27;;;20.70;1.00;;;;;;5034147;28;20394;-78
2021/06/04 05:34:26;;;;;;;13.23;9.73;;;21.00;1.00;;;;;;5033901;28;20418;-78
2021/06/04 05:37:03;;;;;;;23.13;10.83;;;21.10;1.00;;;;;;5040024;28;20463;-77
2021/06/04 05:39:33;;;;;;;12.90;9.30;;;21.20;1.00;;;;;;5054663;28;20446;-77
2021/06/04 05:42:05;;;;;;;13.73;9.80;;;21.30;1.00;;;;;;5049438;28;20892;-78
2021/06/04 05:44:34;;;;;;;15.80;9.33;;;21.60;1.00;;;;;;5047442;28;20398;-77
2021/06/04 05:47:08;;;;;;;17.63;10.50;;;21.70;1.00;;;;;;5048008;28;20425;-78
2021/06/04 05:49:35;;;;;;;13.13;9.23;;;21.90;1.00;;;;;;5034848;28;20420;-78
2021/06/04 05:52:08;;;;;;;17.57;9.47;;;22.10;1.00;;;;;;5033401;28;20455;-78
2021/06/04 05:55:02;;;;;;;12.43;8.10;;;22.10;1.00;;;;;;5034474;28;20451;-78
2021/06/04 05:58:06;;;;;;;15.43;8.10;;;22.20;1.00;;;;;;5033915;28;20421;-79
2021/06/04 06:00:35;;;;;;;14.23;8.80;;;22.30;1.00;;;;;;5033961;28;20438;-78
2021/06/04 06:03:05;;;;;;;11.40;7.70;;;22.40;1.00;;;;;;5048758;28;20418;-78
2021/06/04 06:05:31;;;;;;;13.23;8.30;;;22.50;1.00;;;;;;5050113;28;20769;-79
2021/06/04 06:07:57;;;;;;;14.83;8.43;;;22.40;1.00;;;;;;5052673;28;20421;-79
2021/06/04 06:10:23;;;;;;;14.60;9.40;;;;;;;;;;5052667;28;20399;-79
2021/06/04 06:12:50;;;;;;;13.83;9.07;;;22.40;1.00;;;;;;5052772;28;20401;-79
2021/06/04 06:15:15;;;;;;;15.93;8.70;;;22.40;1.00;;;;;;5044111;28;20462;-78
2021/06/04 06:17:41;;;;;;;13.77;8.93;;;22.40;1.00;;;;;;5031548;28;20752;-78
2021/06/04 06:20:10;;;;;;;12.90;8.00;;;22.30;1.00;;;;;;5032772;28;20166;-78
2021/06/04 06:22:36;;;;;;;15.70;8.23;;;;;;;;;;5038484;28;20557;-79
2021/06/04 06:25:06;;;;;;;10.77;8.30;;;22.30;1.00;;;;;;5047886;28;20436;-79
2021/06/04 06:27:32;;;;;;;13.23;8.97;;;22.20;1.00;;;;;;5036766;28;20402;-79
2021/06/04 06:29:58;;;;;;;12.70;8.97;;;;;;;;;;5036813;28;20776;-78
2021/06/04 06:32:24;;;;;;;14.13;8.40;;;;;;;;;;5040631;28;20197;-78
2021/06/04 06:34:50;;;;;;;13.20;9.60;;;;;;;;;;5037500;28;20796;-79
2021/06/04 06:37:16;;;;;;;12.30;9.03;;;22.30;1.00;;;;;;5039205;28;20456;-79
2021/06/04 06:39:42;;;;;;;18.83;9.53;;;22.30;1.00;;;;;;5038822;28;20442;-79
2021/06/04 06:42:11;;;;;;;12.90;8.60;;;22.40;1.00;;;;;;5036285;28;20422;-79
2021/06/04 06:44:36;;;;;;;14.83;9.87;;;22.30;1.00;;;;;;5050842;28;20212;-78
2021/06/04 06:47:05;;;;;;;13.40;8.50;;;22.40;1.00;;;;;;5047707;28;20453;-78
2021/06/04 06:49:31;;;;;;;12.70;8.70;;;22.50;1.00;;;;;;5049781;28;20218;-78
2021/06/04 06:51:57;;;;;;;10.67;7.60;;;;;;;;;;5044365;28;20420;-78
2021/06/04 07:01:08;;;;;;;15.80;8.53;;;22.70;1.00;;;;;;5042208;28;20416;-79
2021/06/04 07:03:36;;;;;;;12.13;9.50;;;22.70;1.00;;;;;;5056072;28;20396;-79
2021/06/04 07:06:07;;;;;;;13.43;9.30;;;22.70;1.00;;;;;;5055988;28;20417;-79
2021/06/04 07:08:33;;;;;;;21.07;9.20;;;;;;;;;;5056006;28;20416;-79
2021/06/04 07:10:59;;;;;;;13.80;9.80;;;22.60;1.00;;;;;;5047703;28;20427;-79
2021/06/04 07:13:27;;;;;;;15.73;10.30;;;22.50;1.00;;;;;;5036695;28;20436;-78
2021/06/04 07:15:59;;;;;;;13.37;10.27;;;22.50;1.00;;;;;;5055648;28;20462;-78
2021/06/04 07:18:25;;;;;;;16.10;11.67;;;22.60;1.00;;;;;;5055568;28;20904;-78
2021/06/04 07:20:51;;;;;;;22.40;13.17;;;22.70;1.00;;;;;;5055733;28;20414;-78
2021/06/04 07:23:21;;;;;;;25.00;12.63;;;;;;;;;;5054620;28;20441;-78
2021/06/04 07:26:14;;;;;;;14.77;10.60;;;22.70;1.00;;;;;;5038818;28;20256;-78
2021/06/04 07:29:02;;;;;;;15.93;10.10;;;22.60;1.00;;;;;;5043759;28;20426;-78
2021/06/04 07:32:20;;;;;;;14.03;9.90;;;22.50;1.00;;;;;;5054564;28;20807;-78
2021/06/04 07:35:04;;;;;;;14.67;9.00;;;22.60;1.00;;;;;;5056106;28;20893;-78
2021/06/04 07:37:30;;;;;;;14.70;10.47;;;22.70;1.00;;;;;;5055146;28;20449;-78
2021/06/04 07:40:22;;;;;;;20.13;10.53;;;22.60;1.00;;;;;;5048764;28;20522;-78
2021/06/04 07:43:26;;;;;;;14.83;9.80;;;22.60;1.00;;;;;;5036193;28;20769;-78
2021/06/04 07:56:10;;;;;;;14.53;9.60;;;23.00;1.00;;;;;;5038493;28;20512;-78
2021/06/04 07:58:56;;;;;;;13.30;8.53;;;23.00;1.00;;;;;;5037295;28;20419;-78
2021/06/04 08:04:44;;;;;;;15.07;8.60;;;23.10;1.00;;;;;;5039140;28;20409;-78
2021/06/04 08:07:56;;;;;;;10.30;7.70;;;23.20;1.00;;;;;;5050129;28;20785;-78
2021/06/04 08:13:45;;;;;;;15.13;7.17;;;23.30;1.00;;;;;;5055206;28;20433;-78
2021/06/04 08:16:15;;;;;;;12.17;7.73;;;23.40;1.00;;;;;;5055519;28;20448;-78
2021/06/04 08:22:14;;;;;;;20.23;7.87;;;;;;;;;;5035287;28;20758;-78
2021/06/04 08:24:56;;;;;;;10.87;7.33;;;23.70;1.00;;;;;;5054630;28;20886;-78
2021/06/04 08:27:26;;;;;;;10.83;6.63;;;23.80;1.00;;;;;;5052857;28;20520;-79
2021/06/04 08:30:32;;;;;;;14.50;6.73;;;23.90;1.00;;;;;;5053948;28;20910;-78
2021/06/04 08:33:36;;;;;;;8.90;5.70;;;24.00;1.00;;;;;;5055273;28;20475;-78
2021/06/04 08:36:03;;;;;;;8.20;5.23;;;23.90;1.00;;;;;;5013059;28;20545;-72
2021/06/04 08:38:31;;;;;;;8.10;5.60;;;24.10;1.00;;;;;;4995504;28;20456;-72
2021/06/04 08:41:06;;;;;;;10.93;5.63;;;24.30;1.00;;;;;;5011654;28;20438;-72
2021/06/04 08:44:07;;;;;;;6.80;5.07;;;24.50;1.00;;;;;;5012051;28;20477;-72
2021/06/04 08:46:43;;;;;;;9.00;4.93;;;24.80;1.00;;;;;;4974320;28;20423;-75
2021/06/04 08:49:28;;;;;;;6.30;4.60;;;24.80;1.00;;;;;;4973146;28;20833;-75
2021/06/04 08:52:12;;;;;;;5.03;4.53;;;25.00;1.00;;;;;;4973083;28;20427;-75
2021/06/04 08:55:15;;;;;;;7.43;4.30;;;25.00;1.00;;;;;;4973072;28;20417;-75
2021/06/04 08:57:49;;;;;;;6.40;5.00;;;25.00;1.00;;;;;;4972786;28;20430;-75
2021/06/04 09:00:31;;;;;;;6.60;5.00;;;24.80;1.00;;;;;;4973237;28;20962;-71
2021/06/04 09:03:06;;;;;;;5.40;4.80;;;24.80;1.00;;;;;;4972781;28;20425;-72
2021/06/04 09:05:48;;;;;;;6.07;4.70;;;24.90;1.00;;;;;;4972804;28;20400;-72
2021/06/04 09:08:26;;;;;;;5.93;4.40;;;25.00;1.00;;;;;;4972686;28;20881;-72
2021/06/04 09:11:07;;;;;;;12.00;4.20;;;25.20;1.00;;;;;;4989497;28;20420;-72
2021/06/04 09:13:36;;;;;;;5.63;4.93;;;25.10;1.00;;;;;;4992187;28;20501;-75
2021/06/04 09:16:08;;;;;;;4.97;4.43;;;25.20;1.00;;;;;;4992459;28;20936;-72
2021/06/04 09:18:56;;;;;;;4.63;4.20;;;25.40;1.00;;;;;;4985712;28;20453;-72
2021/06/04 09:21:26;;;;;;;10.10;5.13;;;25.60;1.00;;;;;;4972587;28;20384;-72
2021/06/04 09:23:52;;;;;;;3.90;3.50;;;25.70;1.00;;;;;;5044390;28;20456;-72
2021/06/04 09:26:22;;;;;;;4.53;4.00;;;25.70;1.00;;;;;;5053529;28;20454;-75
2021/06/04 09:29:08;;;;;;;7.10;4.63;;;25.90;1.00;;;;;;5053307;28;20413;-72
2021/06/04 09:31:38;;;;;;;5.50;4.57;;;26.00;1.00;;;;;;5053747;28;20549;-72
2021/06/04 09:34:15;;;;;;;6.73;4.03;;;26.10;1.00;;;;;;5053402;28;20438;-72
2021/06/04 09:36:44;;;;;;;8.83;4.70;;;26.20;1.00;;;;;;5053387;28;20534;-72
2021/06/04 09:39:32;;;;;;;7.13;3.83;;;26.30;1.00;;;;;;5044997;28;20424;-72
2021/06/04 09:42:15;;;;;;;8.43;4.97;;;26.50;1.00;;;;;;5033228;28;20390;-72
2021/06/04 09:44:55;;;;;;;10.33;4.60;;;26.70;1.00;;;;;;5036805;28;20423;-72
2021/06/04 09:47:47;;;;;;;5.53;4.50;;;26.80;1.00;;;;;;5034209;28;20460;-76
2021/06/04 09:50:30;;;;;;;6.80;5.33;;;27.00;1.00;;;;;;5033941;28;20400;-75
2021/06/04 09:53:04;;;;;;;4.13;3.80;;;27.20;1.00;;;;;;5061963;28;20444;-74
2021/06/04 09:55:32;;;;;;;5.17;4.13;;;27.60;1.00;;;;;;5073697;28;20983;-73
2021/06/04 09:57:58;;;;;;;4.40;4.00;;;;;;;;;;5073580;28;20401;-72
2021/06/04 10:01:07;;;;;;;4.33;3.93;;;28.10;1.00;;;;;;5073000;28;20386;-72
2021/06/04 10:04:05;;;;;;;4.47;3.37;;;28.30;1.00;;;;;;5033767;28;20424;-75
2021/06/04 10:06:47;;;;;;;6.63;3.10;;;28.50;1.00;;;;;;5033712;28;20455;-75
2021/06/04 10:09:23;;;;;;;5.23;3.07;;;28.80;1.00;;;;;;5034045;28;20444;-74
2021/06/04 10:11:53;;;;;;;5.43;3.90;;;28.90;1.00;;;;;;5033788;28;20488;-76
2021/06/04 10:14:37;;;;;;;7.73;4.27;;;29.10;1.00;;;;;;5037923;28;20436;-77
2021/06/04 10:20:46;;;;;;;4.00;3.60;;;29.30;1.00;;;;;;5053977;28;20736;-75
2021/06/04 10:23:22;;;;;;;7.37;4.03;;;29.20;1.00;;;;;;4991932;28;20419;-76
2021/06/04 10:25:57;;;;;;;5.83;4.43;;;29.00;1.00;;;;;;4990417;28;20407;-75
2021/06/04 10:28:40;;;;;;;4.70;3.93;;;28.80;1.00;;;;;;4991672;28;20463;-75
2021/06/04 10:31:15;;;;;;;5.70;4.20;;;;;;;;;;4975055;28;20432;-75
2021/06/04 10:33:58;;;;;;;14.50;4.17;;;28.80;1.00;;;;;;4972519;28;20825;-75
2021/06/04 10:36:29;;;;;;;9.70;4.30;;;28.80;1.00;;;;;;4972164;28;20546;-75
2021/06/04 10:39:07;;;;;;;5.37;4.40;;;28.90;1.00;;;;;;4972196;28;20435;-75
2021/06/04 10:41:45;;;;;;;7.17;4.70;;;29.00;1.00;;;;;;4977249;28;20451;-76
2021/06/04 10:44:11;;;;;;;4.43;3.87;;;29.00;1.00;;;;;;4991867;28;20404;-76
2021/06/04 10:47:02;;;;;;;5.07;4.30;;;29.00;1.00;;;;;;4973354;28;20435;-75
2021/06/04 10:50:14;;;;;;;5.47;3.90;;;28.90;1.00;;;;;;4972403;28;20249;-75
2021/06/04 10:52:52;;;;;;;7.90;4.37;;;28.80;1.00;;;;;;4933646;29;20438;-76
2021/06/04 10:55:32;;;;;;;5.53;3.73;;;28.70;1.00;;;;;;4929937;29;20443;-76
2021/06/04 10:58:36;;;;;;;6.40;4.47;;;28.90;1.00;;;;;;4932692;29;20458;-75
2021/06/04 11:01:05;;;;;;;4.53;4.10;;;29.00;1.00;;;;;;4987924;28;20422;-75
2021/06/04 11:04:01;;;;;;;4.47;4.07;;;29.10;1.00;;;;;;4986495;28;20526;-75
2021/06/04 11:06:38;;;;;;;4.77;4.10;;;29.20;1.00;;;;;;4990616;28;20469;-75
2021/06/04 11:09:09;;;;;;;4.33;3.93;;;29.40;1.00;;;;;;4990660;28;20431;-75
2021/06/04 11:11:47;;;;;;;4.80;4.30;;;29.40;1.00;;;;;;4991296;28;20462;-75
2021/06/04 11:14:29;;;;;;;4.30;4.00;;;29.20;1.00;;;;;;4988303;28;20522;-75
2021/06/04 11:17:21;;;;;;;4.77;4.27;;;29.30;1.00;;;;;;4975269;28;20469;-75
2021/06/04 11:20:07;;;;;;;6.00;4.30;;;29.30;1.00;;;;;;4990835;28;20408;-75
2021/06/04 11:23:10;;;;;;;6.63;4.27;;;29.10;1.00;;;;;;4994201;28;20437;-75
2021/06/04 11:25:56;;;;;;;7.87;3.93;;;29.00;1.00;;;;;;4994025;28;20408;-75
2021/06/04 11:28:49;;;;;;;4.13;3.83;;;28.90;1.00;;;;;;4984650;28;20442;-75
2021/06/04 11:31:33;;;;;;;8.73;4.30;;;28.70;1.00;;;;;;5035728;28;20401;-75
2021/06/04 11:34:06;;;;;;;4.13;3.80;;;28.60;1.00;;;;;;5035932;28;20394;-72
2021/06/04 11:36:37;;;;;;;5.13;4.00;;;28.60;1.00;;;;;;5048110;28;20460;-72
2021/06/04 11:39:17;;;;;;;6.70;4.40;;;28.60;1.00;;;;;;5054942;28;20484;-72
2021/06/04 11:41:47;;;;;;;10.63;3.90;;;28.80;1.00;;;;;;5055628;28;20763;-72
2021/06/04 11:44:25;;;;;;;4.00;3.70;;;29.00;1.00;;;;;;5037709;28;20422;-72
2021/06/04 11:47:13;;;;;;;6.33;4.00;;;29.10;1.00;;;;;;5048462;28;20942;-75
2021/06/04 11:50:28;;;;;;;4.13;3.60;;;29.10;1.00;;;;;;5044044;28;20425;-72
2021/06/04 11:53:13;;;;;;;6.17;3.93;;;29.10;1.00;;;;;;4993605;28;20914;-72
2021/06/04 11:55:39;;;;;;;5.23;4.17;;;;;;;;;;5009828;28;20533;-72
2021/06/04 11:58:29;;;;;;;4.40;3.67;;;29.30;1.00;;;;;;5012388;28;20435;-72
2021/06/04 12:01:10;;;;;;;3.90;3.60;;;29.70;1.00;;;;;;5013179;28;20411;-72
2021/06/04 12:03:37;;;;;;;6.70;3.80;;;30.00;1.00;;;;;;4996798;28;20426;-75
2021/06/04 12:06:25;;;;;;;7.10;4.10;;;30.10;1.00;;;;;;4996087;28;20525;-75
2021/06/04 12:08:52;;;;;;;6.20;3.83;;;29.90;1.00;;;;;;5012938;28;20426;-75
2021/06/04 12:11:28;;;;;;;5.47;3.67;;;29.90;1.00;;;;;;5013069;28;20404;-75
2021/06/04 12:13:54;;;;;;;4.03;3.63;;;;;;;;;;5011826;28;20438;-75
2021/06/04 12:16:25;;;;;;;6.07;4.00;;;29.70;1.00;;;;;;5010410;28;20471;-75
2021/06/04 12:18:59;;;;;;;4.60;3.67;;;29.70;1.00;;;;;;5002194;28;20403;-75
2021/06/04 12:21:41;;;;;;;5.73;4.40;;;;;;;;;;5012722;28;20393;-72
2021/06/04 12:24:31;;;;;;;8.70;3.83;;;29.40;1.00;;;;;;5011153;28;20504;-72
2021/06/04 12:26:59;;;;;;;11.93;4.37;;;29.40;1.00;;;;;;5011693;28;20447;-72
2021/06/04 12:29:28;;;;;;;3.90;3.60;;;29.40;1.00;;;;;;5027262;28;20429;-72
2021/06/04 12:32:00;;;;;;;4.53;3.63;;;29.30;1.00;;;;;;5034491;28;20450;-72
2021/06/04 12:34:34;;;;;;;8.07;4.30;;;29.40;1.00;;;;;;5034661;28;20484;-72
2021/06/04 12:37:05;;;;;;;5.43;4.27;;;29.50;1.00;;;;;;5034833;28;20828;-75
2021/06/04 12:39:44;;;;;;;15.00;4.40;;;29.70;1.00;;;;;;5034464;28;20953;-75
2021/06/04 12:42:12;;;;;;;6.80;4.03;;;29.80;1.00;;;;;;5034413;28;20481;-75
2021/06/04 12:44:40;;;;;;;4.93;3.80;;;29.90;1.00;;;;;;5034381;28;20537;-75
2021/06/04 12:47:12;;;;;;;8.40;4.00;;;30.10;1.00;;;;;;5034481;28;20809;-76
2021/06/04 12:49:38;;;;;;;4.67;3.60;;;;;;;;;;5034643;28;20395;-75
2021/06/04 12:52:14;;;;;;;3.50;3.20;;;30.20;1.00;;;;;;5033891;28;20776;-75
2021/06/04 12:54:40;;;;;;;5.53;3.90;;;30.30;1.00;;;;;;5034147;28;20743;-76
2021/06/04 12:57:20;;;;;;;4.53;3.90;;;30.40;1.00;;;;;;5034109;28;20920;-75
2021/06/04 12:59:48;;;;;;;5.53;4.03;;;;;;;;;;5045557;28;20183;-75
2021/06/04 13:02:17;;;;;;;7.23;3.80;;;30.60;1.00;;;;;;5052240;28;20418;-76
2021/06/04 13:04:49;;;;;;;4.60;3.60;;;30.60;1.00;;;;;;5054310;28;20429;-75
2021/06/04 13:07:26;;;;;;;5.80;3.77;;;;;;;;;;5053700;28;20446;-75
2021/06/04 13:10:21;;;;;;;6.13;4.10;;;30.50;1.00;;;;;;5053675;28;20933;-75
2021/06/04 13:12:48;;;;;;;4.40;4.00;;;30.40;1.00;;;;;;5048128;28;20971;-75
2021/06/04 13:15:18;;;;;;;7.37;4.10;;;30.40;1.00;;;;;;5032417;28;20461;-75
2021/06/04 13:17:56;;;;;;;4.50;4.03;;;30.50;1.00;;;;;;5033931;28;20396;-73
2021/06/04 13:20:24;;;;;;;9.13;3.70;;;30.50;1.00;;;;;;5033614;28;20395;-75
2021/06/04 13:23:09;;;;;;;6.63;3.47;;;30.70;1.00;;;;;;5049237;28;20413;-76
2021/06/04 13:25:35;;;;;;;4.37;3.60;;;31.00;1.00;;;;;;5053283;28;20472;-75
2021/06/04 13:28:24;;;;;;;6.80;3.87;;;31.30;1.00;;;;;;5050611;28;20901;-76
2021/06/04 13:30:53;;;;;;;7.50;3.87;;;31.40;1.00;;;;;;5032983;28;20426;-77
2021/06/04 13:33:31;;;;;;;4.00;3.63;;;31.50;1.00;;;;;;5046371;28;20957;-73
2021/06/04 13:35:57;;;;;;;10.73;4.43;;;31.70;1.00;;;;;;5032888;28;20921;-72
2021/06/04 13:38:32;;;;;;;5.70;3.50;;;31.70;1.00;;;;;;5033416;28;20403;-75
2021/06/04 13:41:01;;;;;;;4.60;3.70;;;31.70;1.00;;;;;;5033360;28;20402;-75
2021/06/04 13:43:35;;;;;;;5.47;3.97;;;31.50;1.00;;;;;;5033246;28;20860;-75
2021/06/04 13:46:02;;;;;;;5.07;3.53;;;31.30;1.00;;;;;;5033098;28;21071;-75
2021/06/04 13:48:33;;;;;;;10.40;4.10;;;31.20;1.00;;;;;;5033623;28;20403;-75
2021/06/04 13:51:25;;;;;;;8.80;4.13;;;31.40;1.00;;;;;;5033186;28;20398;-75
2021/06/04 13:53:54;;;;;;;7.30;3.80;;;31.40;1.00;;;;;;5033464;28;20917;-75
2021/06/04 13:56:25;;;;;;;4.63;3.33;;;31.20;1.00;;;;;;5033042;28;20404;-73
2021/06/04 13:59:16;;;;;;;7.23;3.37;;;31.40;1.00;;;;;;5033014;28;20445;-72
2021/06/04 14:02:18;;;;;;;4.07;3.37;;;31.00;1.00;;;;;;5033020;28;20912;-73
2021/06/04 14:04:52;;;;;;;3.83;3.53;;;31.10;1.00;;;;;;5033338;28;20395;-75
2021/06/04 14:07:24;;;;;;;6.07;3.30;;;31.00;1.00;;;;;;5032842;28;20449;-75
2021/06/04 14:09:54;;;;;;;5.97;3.10;;;31.00;1.00;;;;;;5032952;28;20411;-75
2021/06/04 14:12:20;;;;;;;4.50;3.70;;;30.90;1.00;;;;;;5032984;28;20391;-75
2021/06/04 14:14:48;;;;;;;5.90;3.70;;;30.80;1.00;;;;;;5032898;28;20419;-75
2021/06/04 14:17:19;;;;;;;3.53;3.23;;;;;;;;;;5032897;28;20171;-72
2021/06/04 14:20:03;;;;;;;7.37;3.50;;;30.40;1.00;;;;;;5033125;28;20421;-72
2021/06/04 14:22:34;;;;;;;4.40;3.47;;;30.30;1.00;;;;;;5032813;28;20395;-72
2021/06/04 14:25:01;;;;;;;7.70;3.30;;;30.30;1.00;;;;;;5033248;28;20411;-75
2021/06/04 14:27:34;;;;;;;30.87;4.13;;;30.30;1.00;;;;;;5033473;28;20450;-75
2021/06/04 14:30:14;;;;;;;21.33;5.80;;;30.40;1.00;;;;;;5036850;28;20925;-74